Time;durP1;ratioP1;P1;durP2;ratioP2;P2;SDS_P1;SDS_P2;PMS_P1;PMS_P2;Temp;Humidity;BMP_temperature;BMP_pressure;BME280_temperature;BME280_humidity;BME280_pressure;Samples;Min_cycle;Max_cycle;Signal;HPM_P1;HPM_P2
2023/12/11 00:01:03;;;;;;;5.13;2.45;;;0.70;99.90;;;;;;5086274;28;20024;-79
2023/12/11 00:03:29;;;;;;;5.50;2.03;;;0.70;99.90;;;;;;5086002;28;20427;-80
2023/12/11 00:05:55;;;;;;;3.53;2.00;;;0.70;99.90;;;;;;5083471;28;20032;-80
2023/12/11 00:08:20;;;;;;;4.50;1.80;;;0.80;99.90;;;;;;5083654;28;20025;-80
2023/12/11 00:10:46;;;;;;;7.10;2.13;;;0.80;99.90;;;;;;5066391;28;20100;-80
2023/12/11 00:13:12;;;;;;;4.78;2.08;;;0.80;99.90;;;;;;5067251;28;20036;-81
2023/12/11 00:15:39;;;;;;;4.65;1.85;;;0.80;99.90;;;;;;5082495;28;20068;-80
2023/12/11 00:18:05;;;;;;;4.40;2.33;;;0.80;99.90;;;;;;5067864;28;20384;-80
2023/12/11 00:20:31;;;;;;;6.35;3.20;;;0.80;99.90;;;;;;5065500;28;20031;-81
2023/12/11 00:22:57;;;;;;;5.13;3.00;;;0.70;99.90;;;;;;5048192;28;20021;-80
2023/12/11 00:25:23;;;;;;;6.68;3.22;;;0.80;99.90;;;;;;5047087;28;20029;-81
2023/12/11 00:27:49;;;;;;;5.65;2.67;;;0.80;99.90;;;;;;5068140;28;20052;-80
2023/12/11 00:30:14;;;;;;;4.13;2.20;;;0.80;99.90;;;;;;5051226;28;20555;-81
2023/12/11 00:32:40;;;;;;;4.80;2.17;;;0.70;99.90;;;;;;5052546;28;20033;-81
2023/12/11 00:35:06;;;;;;;5.15;2.10;;;0.80;99.90;;;;;;5051965;28;20045;-81
2023/12/11 00:37:32;;;;;;;3.72;2.22;;;0.80;99.90;;;;;;5082631;28;20028;-80
2023/12/11 00:39:58;;;;;;;4.20;2.20;;;0.80;99.90;;;;;;5088272;28;20120;-80
2023/12/11 00:42:23;;;;;;;6.72;2.35;;;0.80;99.90;;;;;;5089475;28;20028;-80
2023/12/11 00:44:49;;;;;;;6.60;3.20;;;0.80;99.90;;;;;;5089223;28;20029;-80
2023/12/11 00:47:15;;;;;;;7.18;2.70;;;0.80;99.90;;;;;;5088179;28;20075;-80
2023/12/11 00:49:40;;;;;;;5.05;2.67;;;0.80;99.90;;;;;;5088984;28;20029;-80
2023/12/11 00:52:06;;;;;;;6.60;2.50;;;0.90;99.90;;;;;;5088944;28;20028;-80
2023/12/11 00:54:32;;;;;;;3.55;2.10;;;0.90;99.90;;;;;;5090842;22;20042;-74
2023/12/11 00:56:57;;;;;;;4.07;2.38;;;0.90;99.90;;;;;;5036346;28;20034;-74
2023/12/11 00:59:23;;;;;;;4.85;2.45;;;0.90;99.90;;;;;;5051552;28;20033;-74
2023/12/11 01:01:49;;;;;;;4.97;2.42;;;0.80;99.90;;;;;;5035126;28;20086;-74
2023/12/11 01:04:15;;;;;;;7.53;2.72;;;0.80;99.90;;;;;;5036231;28;20512;-74
2023/12/11 01:06:41;;;;;;;4.30;2.05;;;0.80;99.90;;;;;;5034888;28;20034;-74
2023/12/11 01:09:07;;;;;;;9.45;2.15;;;0.80;99.90;;;;;;5036367;28;20029;-70
2023/12/11 01:11:33;;;;;;;3.33;1.63;;;0.80;99.90;;;;;;5036094;28;20033;-70
2023/12/11 01:13:59;;;;;;;4.97;2.17;;;0.80;99.90;;;;;;5036532;28;20042;-70
2023/12/11 01:16:24;;;;;;;4.13;2.00;;;0.80;99.90;;;;;;5036259;28;20026;-70
2023/12/11 01:18:51;;;;;;;3.22;1.30;;;0.80;99.90;;;;;;5035835;28;20022;-70
2023/12/11 01:21:16;;;;;;;3.10;1.45;;;0.80;99.90;;;;;;5035900;28;20029;-70
2023/12/11 01:23:42;;;;;;;4.57;1.42;;;0.80;99.90;;;;;;5035617;28;20025;-71
2023/12/11 01:26:08;;;;;;;4.03;1.75;;;0.80;99.90;;;;;;5035821;28;20101;-71
2023/12/11 01:28:34;;;;;;;3.35;1.88;;;0.80;99.90;;;;;;5035927;28;20469;-71
2023/12/11 01:31:00;;;;;;;4.65;2.20;;;0.80;99.90;;;;;;5036033;28;20036;-71
2023/12/11 01:33:26;;;;;;;4.57;1.52;;;0.80;99.90;;;;;;5035704;28;20048;-71
2023/12/11 01:35:51;;;;;;;3.40;1.80;;;0.80;99.90;;;;;;5035598;28;20092;-71
2023/12/11 01:38:17;;;;;;;4.28;1.65;;;0.80;99.90;;;;;;5035084;28;20028;-70
2023/12/11 01:40:43;;;;;;;4.72;2.03;;;0.80;99.90;;;;;;5035559;28;20025;-71
2023/12/11 01:43:20;;;;;;;3.45;1.88;;;0.80;99.90;;;;;;5035525;28;20469;-71
2023/12/11 01:46:12;;;;;;;3.50;1.73;;;0.80;99.90;;;;;;5035741;28;20083;-71
2023/12/11 01:48:38;;;;;;;5.28;1.63;;;0.90;99.90;;;;;;5035309;28;20060;-71
2023/12/11 01:51:05;;;;;;;3.72;2.10;;;0.80;99.90;;;;;;5039175;28;20037;-71
2023/12/11 01:53:32;;;;;;;4.82;2.05;;;0.80;99.90;;;;;;5039328;28;20037;-71
2023/12/11 01:55:59;;;;;;;2.97;1.80;;;0.80;99.90;;;;;;5038197;28;20564;-71
2023/12/11 01:58:25;;;;;;;3.63;1.88;;;0.80;99.90;;;;;;5038338;28;20381;-71
2023/12/11 02:00:51;;;;;;;4.70;1.70;;;0.80;99.90;;;;;;5039953;28;20057;-71
2023/12/11 02:03:18;;;;;;;3.53;1.92;;;0.80;99.90;;;;;;5038302;28;20029;-71
2023/12/11 02:05:44;;;;;;;3.63;1.90;;;0.80;99.90;;;;;;5040426;28;20579;-71
2023/12/11 02:08:10;;;;;;;4.97;1.98;;;0.80;99.90;;;;;;5037214;28;20516;-72
2023/12/11 02:10:36;;;;;;;5.28;1.52;;;0.80;99.90;;;;;;5036073;28;20033;-71
2023/12/11 02:13:03;;;;;;;3.38;1.58;;;0.80;99.90;;;;;;5035188;28;20053;-71
2023/12/11 02:15:43;;;;;;;3.55;1.60;;;0.80;99.90;;;;;;5034790;28;20026;-71
2023/12/11 02:18:11;;;;;;;4.63;1.92;;;0.90;99.90;;;;;;5035088;28;20029;-71
2023/12/11 02:20:40;;;;;;;4.55;1.60;;;0.80;99.90;;;;;;5035026;28;20057;-71
2023/12/11 02:23:23;;;;;;;3.03;1.70;;;0.80;99.90;;;;;;5034689;28;20100;-72
2023/12/11 02:25:59;;;;;;;4.28;2.33;;;0.80;99.90;;;;;;5035783;28;20496;-71
2023/12/11 02:28:25;;;;;;;3.58;1.92;;;0.90;99.90;;;;;;5034590;28;20025;-71
2023/12/11 02:30:51;;;;;;;3.72;2.20;;;0.90;99.90;;;;;;5033577;28;20044;-71
2023/12/11 02:33:17;;;;;;;2.92;1.63;;;0.90;99.90;;;;;;5034572;28;20037;-71
2023/12/11 02:35:43;;;;;;;20.50;10.20;;;0.90;99.90;;;;;;5034505;28;20560;-71
2023/12/11 02:38:09;;;;;;;10.48;5.10;;;0.90;99.90;;;;;;5032953;28;20044;-72
2023/12/11 02:40:35;;;;;;;4.68;2.42;;;0.80;99.90;;;;;;5036784;28;20473;-71
2023/12/11 02:43:01;;;;;;;4.38;2.55;;;0.80;99.90;;;;;;5034380;28;20053;-71
2023/12/11 02:45:26;;;;;;;5.65;3.22;;;0.80;99.90;;;;;;5034319;28;20543;-71
2023/12/11 02:47:56;;;;;;;7.97;4.10;;;0.80;99.90;;;;;;5034531;28;20064;-71
2023/12/11 02:50:22;;;;;;;9.35;5.13;;;0.80;99.90;;;;;;5038597;28;20047;-71
2023/12/11 02:52:48;;;;;;;10.75;5.90;;;0.80;99.90;;;;;;5038944;28;20108;-71
2023/12/11 02:55:14;;;;;;;9.25;5.20;;;0.90;99.90;;;;;;5037560;28;20052;-71
2023/12/11 02:57:40;;;;;;;11.98;7.03;;;0.90;99.90;;;;;;5039232;28;20026;-72
2023/12/11 03:00:06;;;;;;;12.07;6.53;;;0.90;99.90;;;;;;5038909;28;20028;-71
2023/12/11 03:02:32;;;;;;;11.00;6.85;;;0.90;99.90;;;;;;5038725;28;20037;-72
2023/12/11 03:04:58;;;;;;;13.25;7.13;;;0.90;99.90;;;;;;5038792;28;20029;-72
2023/12/11 03:07:25;;;;;;;13.90;8.63;;;0.90;99.90;;;;;;5037392;28;20099;-73
2023/12/11 03:09:51;;;;;;;11.95;7.30;;;0.90;99.90;;;;;;5037462;28;20095;-73
2023/12/11 03:12:17;;;;;;;12.32;6.05;;;0.90;99.90;;;;;;5036757;28;20034;-72
2023/12/11 03:14:44;;;;;;;5.88;2.63;;;0.90;99.90;;;;;;5039166;28;20037;-72
2023/12/11 03:17:10;;;;;;;4.95;2.33;;;0.90;99.90;;;;;;5038774;28;20040;-72
2023/12/11 03:19:35;;;;;;;5.03;1.88;;;0.90;99.90;;;;;;5038473;28;20022;-72
2023/12/11 03:22:04;;;;;;;5.57;2.13;;;0.90;99.90;;;;;;5037858;28;20068;-72
2023/12/11 03:24:30;;;;;;;4.55;2.80;;;0.90;99.90;;;;;;5038066;28;20022;-71
2023/12/11 03:26:56;;;;;;;9.90;4.40;;;1.00;99.90;;;;;;5038377;28;20038;-72
2023/12/11 03:29:22;;;;;;;11.98;6.22;;;0.90;99.90;;;;;;5032533;28;20036;-72
2023/12/11 03:31:47;;;;;;;11.18;6.78;;;0.90;99.90;;;;;;5033815;28;20037;-72
2023/12/11 03:34:13;;;;;;;21.65;6.47;;;0.90;99.90;;;;;;5033433;28;20444;-72
2023/12/11 03:36:38;;;;;;;11.07;6.30;;;0.90;99.90;;;;;;5033440;28;20022;-72
2023/12/11 03:39:07;;;;;;;12.13;6.43;;;1.00;99.90;;;;;;5034660;28;20037;-72
2023/12/11 03:41:33;;;;;;;10.10;5.50;;;1.00;99.90;;;;;;5037096;28;20044;-72
2023/12/11 03:43:59;;;;;;;8.35;4.50;;;1.00;99.90;;;;;;5038146;28;20437;-72
2023/12/11 03:46:25;;;;;;;7.93;4.85;;;1.00;99.90;;;;;;5038928;28;20029;-72
2023/12/11 03:48:51;;;;;;;11.00;5.35;;;1.00;99.90;;;;;;5039282;28;20389;-72
2023/12/11 03:51:17;;;;;;;12.40;5.38;;;1.00;99.90;;;;;;5038227;28;20446;-72
2023/12/11 03:53:43;;;;;;;7.95;3.97;;;1.00;99.90;;;;;;5037784;28;20029;-72
2023/12/11 03:56:08;;;;;;;8.63;3.42;;;1.00;99.90;;;;;;5033546;28;20034;-72
2023/12/11 03:58:34;;;;;;;7.68;3.47;;;1.10;99.90;;;;;;5033179;28;20469;-72
2023/12/11 04:01:00;;;;;;;5.57;3.40;;;1.00;99.90;;;;;;5034213;28;20029;-72
2023/12/11 04:03:26;;;;;;;8.10;4.30;;;1.00;99.90;;;;;;5041355;28;20091;-72
2023/12/11 04:05:52;;;;;;;8.40;5.03;;;1.00;99.90;;;;;;5044979;28;20036;-71
2023/12/11 04:08:18;;;;;;;7.95;4.18;;;1.00;99.90;;;;;;5042127;28;20025;-71
2023/12/11 04:10:43;;;;;;;8.40;4.60;;;1.00;99.90;;;;;;5042539;28;20029;-71
2023/12/11 04:13:09;;;;;;;7.55;4.10;;;1.00;99.90;;;;;;5043623;28;20481;-72
2023/12/11 04:15:35;;;;;;;7.68;4.00;;;1.00;99.90;;;;;;5041403;28;20107;-72
2023/12/11 04:18:01;;;;;;;7.55;4.55;;;1.00;99.90;;;;;;5040245;28;20030;-72
2023/12/11 04:20:27;;;;;;;8.90;4.50;;;1.00;99.90;;;;;;5041377;28;20036;-72
2023/12/11 04:22:52;;;;;;;5.80;3.38;;;1.00;99.90;;;;;;5040209;28;20029;-72
2023/12/11 04:25:18;;;;;;;4.57;2.78;;;1.00;99.90;;;;;;5040171;28;20022;-72
2023/12/11 04:27:44;;;;;;;4.95;2.03;;;1.00;99.90;;;;;;5038727;28;20108;-72
2023/12/11 04:30:10;;;;;;;3.78;2.03;;;1.00;99.90;;;;;;5039858;28;20477;-71
2023/12/11 04:32:36;;;;;;;3.70;1.83;;;1.00;99.90;;;;;;5038734;28;20041;-72
2023/12/11 04:35:01;;;;;;;5.15;1.70;;;1.00;99.90;;;;;;5039056;28;20033;-72
2023/12/11 04:37:27;;;;;;;6.65;1.88;;;1.10;99.90;;;;;;5039657;28;20481;-72
2023/12/11 04:39:53;;;;;;;4.65;1.40;;;1.10;99.90;;;;;;5039618;28;20038;-72
2023/12/11 04:42:19;;;;;;;3.90;1.70;;;1.10;99.90;;;;;;5039323;28;20084;-72
2023/12/11 04:44:44;;;;;;;2.47;1.80;;;1.10;99.90;;;;;;5039036;28;20029;-72
2023/12/11 04:47:10;;;;;;;6.78;1.58;;;1.10;99.90;;;;;;5041085;28;20430;-72
2023/12/11 04:49:36;;;;;;;2.58;1.23;;;1.10;99.90;;;;;;5038920;28;20040;-72
2023/12/11 04:52:03;;;;;;;2.55;1.33;;;1.10;99.90;;;;;;5040812;28;20034;-72
2023/12/11 04:54:29;;;;;;;3.10;1.70;;;1.10;99.90;;;;;;5040006;28;20063;-72
2023/12/11 04:56:54;;;;;;;4.85;2.58;;;1.10;99.90;;;;;;5038490;28;20528;-72
2023/12/11 04:59:20;;;;;;;5.90;2.53;;;1.20;99.90;;;;;;5040242;28;20018;-72
2023/12/11 05:01:46;;;;;;;8.20;3.17;;;1.20;99.90;;;;;;5038740;28;20033;-72
2023/12/11 05:04:11;;;;;;;28.67;13.95;;;1.20;99.90;;;;;;5036893;28;20100;-72
2023/12/11 05:06:37;;;;;;;15.73;10.32;;;1.20;99.90;;;;;;5034898;28;20029;-72
2023/12/11 05:09:03;;;;;;;7.47;3.53;;;1.20;99.90;;;;;;5018254;28;20037;-72
2023/12/11 05:11:28;;;;;;;8.40;4.60;;;1.20;99.90;;;;;;5036358;28;20044;-72
2023/12/11 05:13:54;;;;;;;6.18;4.18;;;1.20;99.90;;;;;;5036845;28;20056;-72
2023/12/11 05:16:20;;;;;;;6.10;3.60;;;1.20;99.90;;;;;;5037995;28;20561;-72
2023/12/11 05:18:46;;;;;;;8.90;4.93;;;1.10;99.90;;;;;;5038647;28;20026;-72
2023/12/11 05:21:11;;;;;;;11.85;6.10;;;1.10;99.90;;;;;;5037074;28;20029;-72
2023/12/11 05:23:37;;;;;;;11.05;6.03;;;1.20;99.90;;;;;;5035438;28;20385;-72
2023/12/11 05:26:03;;;;;;;12.50;6.18;;;1.20;99.90;;;;;;5034618;28;20028;-72
2023/12/11 05:28:29;;;;;;;10.63;5.47;;;1.20;99.90;;;;;;5036292;28;20494;-72
2023/12/11 05:30:54;;;;;;;8.77;5.30;;;1.10;99.90;;;;;;5036296;28;20021;-72
2023/12/11 05:33:20;;;;;;;9.73;5.10;;;1.10;99.90;;;;;;5035706;28;20113;-72
2023/12/11 05:35:46;;;;;;;9.60;5.45;;;1.10;99.90;;;;;;5035609;28;20039;-72
2023/12/11 05:38:12;;;;;;;8.40;5.15;;;1.10;99.90;;;;;;5035497;28;20088;-72
2023/12/11 05:40:38;;;;;;;11.32;6.25;;;1.10;99.90;;;;;;5034146;28;20029;-72
2023/12/11 05:43:03;;;;;;;8.73;6.03;;;1.10;99.90;;;;;;5035605;28;20033;-72
2023/12/11 05:45:29;;;;;;;11.07;6.63;;;1.10;99.90;;;;;;5036786;28;20026;-72
2023/12/11 05:47:55;;;;;;;17.15;8.45;;;1.10;99.90;;;;;;5034057;28;20120;-72
2023/12/11 05:50:20;;;;;;;11.95;7.32;;;1.00;99.90;;;;;;5035411;28;20026;-72
2023/12/11 05:52:46;;;;;;;10.27;6.13;;;1.00;99.90;;;;;;5035620;28;20092;-72
2023/12/11 05:55:12;;;;;;;10.20;5.97;;;1.00;99.90;;;;;;5034878;28;20033;-72
2023/12/11 05:57:38;;;;;;;11.82;6.50;;;1.10;99.90;;;;;;5035182;28;20029;-72
2023/12/11 06:00:04;;;;;;;10.88;6.30;;;1.10;99.90;;;;;;5035196;28;20561;-72
2023/12/11 06:02:30;;;;;;;13.43;7.47;;;1.00;99.90;;;;;;5035100;28;20382;-72
2023/12/11 06:04:56;;;;;;;14.45;7.68;;;1.00;99.90;;;;;;5035119;28;20029;-72
2023/12/11 06:07:21;;;;;;;17.88;9.80;;;1.00;99.90;;;;;;5034982;28;20505;-72
2023/12/11 06:09:47;;;;;;;17.75;9.60;;;1.00;99.90;;;;;;5034899;28;20041;-72
2023/12/11 06:12:13;;;;;;;20.85;11.00;;;0.90;99.90;;;;;;5034135;28;20030;-72
2023/12/11 06:14:42;;;;;;;21.83;10.82;;;0.90;99.90;;;;;;5034865;28;20112;-72
2023/12/11 06:17:07;;;;;;;13.98;7.20;;;0.90;99.90;;;;;;5034844;28;20485;-73
2023/12/11 06:19:33;;;;;;;21.67;11.10;;;0.90;99.90;;;;;;5035112;28;20092;-72
2023/12/11 06:21:59;;;;;;;17.17;9.35;;;0.90;99.90;;;;;;5035095;28;20084;-72
2023/12/11 06:24:24;;;;;;;10.57;7.30;;;0.90;99.90;;;;;;5033611;28;20039;-72
2023/12/11 06:26:50;;;;;;;11.48;6.45;;;0.90;99.90;;;;;;5034832;28;20057;-72
2023/12/11 06:29:16;;;;;;;10.07;5.68;;;0.90;99.90;;;;;;5033321;28;20120;-72
2023/12/11 06:31:41;;;;;;;9.05;5.18;;;0.90;99.90;;;;;;5033329;28;20034;-72
2023/12/11 06:34:07;;;;;;;9.57;5.18;;;1.00;99.90;;;;;;5034461;28;20032;-72
2023/12/11 06:36:33;;;;;;;11.60;5.85;;;0.90;99.90;;;;;;5034459;28;20033;-72
2023/12/11 06:38:59;;;;;;;13.52;6.65;;;0.90;99.90;;;;;;5034174;28;20390;-72
2023/12/11 06:41:24;;;;;;;13.70;7.13;;;0.90;99.90;;;;;;5034987;28;20075;-72
2023/12/11 06:43:53;;;;;;;11.18;6.07;;;1.00;99.90;;;;;;5034379;28;20025;-72
2023/12/11 06:46:20;;;;;;;14.10;7.40;;;1.00;99.90;;;;;;5034626;28;20013;-72
2023/12/11 06:48:45;;;;;;;12.98;6.40;;;1.00;99.90;;;;;;5034502;28;20037;-72
2023/12/11 06:51:13;;;;;;;11.35;6.78;;;1.00;99.90;;;;;;5034331;28;20025;-72
2023/12/11 06:53:39;;;;;;;13.27;7.22;;;1.00;99.90;;;;;;5034116;28;20025;-72
2023/12/11 06:56:05;;;;;;;21.10;9.07;;;1.00;99.90;;;;;;5016264;28;20035;-72
2023/12/11 06:58:31;;;;;;;18.63;9.85;;;1.00;99.90;;;;;;5034037;28;20105;-72
2023/12/11 07:00:58;;;;;;;16.85;8.65;;;1.00;99.90;;;;;;5034030;28;20104;-72
2023/12/11 07:03:24;;;;;;;28.15;12.13;;;1.00;99.90;;;;;;5032803;28;20440;-72
2023/12/11 07:05:50;;;;;;;30.95;12.77;;;1.00;99.90;;;;;;5034499;28;20060;-72
2023/12/11 07:08:15;;;;;;;23.55;11.52;;;1.00;99.90;;;;;;5034322;28;20030;-72
2023/12/11 07:10:41;;;;;;;15.82;6.45;;;1.00;99.90;;;;;;5033665;28;20034;-72
2023/12/11 07:13:07;;;;;;;19.73;6.90;;;1.00;99.90;;;;;;5033870;28;20069;-72
2023/12/11 07:15:33;;;;;;;29.77;11.55;;;1.00;99.90;;;;;;5033768;28;20030;-72
2023/12/11 07:17:58;;;;;;;25.42;10.10;;;1.10;99.90;;;;;;5033704;28;20022;-72
2023/12/11 07:20:24;;;;;;;18.70;8.23;;;1.10;99.90;;;;;;5033143;28;20548;-72
2023/12/11 07:22:50;;;;;;;18.30;8.82;;;1.10;99.90;;;;;;5033731;28;20025;-72
2023/12/11 07:25:16;;;;;;;27.00;13.15;;;1.20;99.90;;;;;;5033558;28;20021;-72
2023/12/11 07:27:43;;;;;;;41.80;25.05;;;1.20;99.90;;;;;;5033858;28;20424;-72
2023/12/11 07:30:10;;;;;;;35.22;17.85;;;1.20;99.90;;;;;;5033617;28;20083;-72
2023/12/11 07:32:36;;;;;;;35.53;14.98;;;1.20;99.90;;;;;;5033492;28;20104;-72
2023/12/11 07:35:02;;;;;;;32.42;13.48;;;1.20;99.90;;;;;;5033273;28;20505;-72
2023/12/11 07:37:28;;;;;;;22.20;11.82;;;1.20;99.90;;;;;;5033844;28;20410;-72
2023/12/11 07:39:54;;;;;;;23.63;10.80;;;1.20;99.90;;;;;;5033275;28;20029;-72
2023/12/11 07:42:20;;;;;;;20.75;11.30;;;1.20;99.90;;;;;;5033413;28;20059;-72
2023/12/11 07:44:45;;;;;;;27.98;16.92;;;1.20;99.90;;;;;;5033402;28;20079;-72
2023/12/11 07:47:11;;;;;;;20.67;10.55;;;1.30;99.90;;;;;;5033582;28;20036;-73
2023/12/11 07:49:37;;;;;;;16.70;8.95;;;1.30;99.90;;;;;;5033368;28;20121;-72
2023/12/11 07:52:03;;;;;;;20.35;9.75;;;1.40;99.90;;;;;;5033372;28;20088;-72
2023/12/11 07:54:29;;;;;;;17.05;9.20;;;1.40;99.90;;;;;;5032858;28;20029;-72
2023/12/11 07:56:54;;;;;;;40.80;17.77;;;1.40;99.90;;;;;;5033613;28;20083;-72
2023/12/11 07:59:20;;;;;;;57.25;25.77;;;1.40;99.90;;;;;;5033216;28;20051;-72
2023/12/11 08:01:46;;;;;;;44.83;21.65;;;1.50;99.90;;;;;;5033274;28;20028;-72
2023/12/11 08:04:14;;;;;;;36.60;18.92;;;1.40;99.90;;;;;;5033198;28;20088;-72
2023/12/11 08:06:41;;;;;;;46.00;22.52;;;1.50;99.90;;;;;;5033158;28;20501;-72
2023/12/11 08:09:08;;;;;;;29.73;16.15;;;1.50;99.90;;;;;;5031888;28;20408;-73
2023/12/11 08:11:33;;;;;;;22.38;10.35;;;1.50;99.90;;;;;;5032020;28;20083;-72
2023/12/11 08:13:59;;;;;;;18.58;9.98;;;1.50;99.90;;;;;;5033092;28;20104;-72
2023/12/11 08:16:25;;;;;;;15.77;8.73;;;1.50;99.90;;;;;;5033425;28;20029;-72
2023/12/11 08:18:51;;;;;;;19.05;11.70;;;1.50;99.90;;;;;;5033038;28;20036;-72
2023/12/11 08:21:17;;;;;;;10.77;6.15;;;1.50;99.90;;;;;;5033085;28;20026;-72
2023/12/11 08:23:51;;;;;;;12.18;6.82;;;1.50;99.90;;;;;;5032045;28;20096;-72
2023/12/11 08:26:18;;;;;;;13.95;7.38;;;1.50;99.90;;;;;;5032828;28;20026;-72
2023/12/11 08:28:44;;;;;;;24.17;9.40;;;1.50;99.90;;;;;;5032921;28;20370;-72
2023/12/11 08:31:10;;;;;;;18.20;7.70;;;1.50;99.90;;;;;;5032126;28;20030;-72
2023/12/11 08:33:36;;;;;;;18.40;9.10;;;1.50;99.90;;;;;;5033273;28;20441;-72
2023/12/11 08:36:03;;;;;;;18.27;9.43;;;1.50;99.90;;;;;;5033113;28;20117;-73
2023/12/11 08:38:29;;;;;;;16.42;8.38;;;1.50;99.90;;;;;;5032972;28;20062;-72
2023/12/11 08:40:55;;;;;;;20.05;10.23;;;1.50;99.90;;;;;;5032721;28;20388;-72
2023/12/11 08:43:21;;;;;;;16.17;9.30;;;1.50;99.90;;;;;;5032894;28;20391;-72
2023/12/11 08:45:47;;;;;;;19.05;8.95;;;1.50;99.90;;;;;;5031588;28;20117;-73
2023/12/11 08:48:13;;;;;;;18.40;10.48;;;1.60;99.90;;;;;;5035723;28;20117;-73
2023/12/11 08:50:39;;;;;;;25.52;13.57;;;1.60;99.90;;;;;;5036525;28;20037;-72
2023/12/11 08:53:05;;;;;;;25.20;11.02;;;1.60;99.90;;;;;;5036458;28;20036;-73
2023/12/11 08:55:31;;;;;;;20.17;10.50;;;1.60;99.90;;;;;;5036014;28;20034;-73
2023/12/11 08:57:57;;;;;;;16.27;9.65;;;1.60;99.90;;;;;;5036596;28;20025;-73
2023/12/11 09:00:23;;;;;;;20.10;10.32;;;1.60;99.90;;;;;;5036348;28;20188;-73
2023/12/11 09:02:49;;;;;;;15.18;9.10;;;1.60;99.90;;;;;;5036414;28;20141;-73
2023/12/11 09:05:15;;;;;;;19.58;9.38;;;1.60;99.90;;;;;;5036183;28;20469;-73
2023/12/11 09:07:41;;;;;;;20.88;9.93;;;1.70;99.90;;;;;;5036087;28;20075;-73
2023/12/11 09:10:08;;;;;;;238.38;114.25;;;1.70;99.90;;;;;;5035924;28;20092;-73
2023/12/11 09:12:35;;;;;;;144.15;68.72;;;1.70;99.90;;;;;;5036072;28;20506;-73
2023/12/11 09:15:01;;;;;;;65.63;30.83;;;1.70;99.90;;;;;;5036021;28;20029;-73
2023/12/11 09:17:27;;;;;;;20.67;9.02;;;1.70;99.90;;;;;;5036255;28;20030;-73
2023/12/11 09:19:53;;;;;;;23.10;10.95;;;1.70;99.90;;;;;;5036001;28;20101;-72
2023/12/11 09:22:19;;;;;;;22.52;11.93;;;1.70;99.90;;;;;;5034934;28;20053;-73
2023/12/11 09:24:44;;;;;;;21.90;10.82;;;1.70;99.90;;;;;;5035697;28;20033;-73
2023/12/11 09:27:10;;;;;;;23.08;11.95;;;1.70;99.90;;;;;;5034475;28;20123;-73
2023/12/11 09:29:36;;;;;;;22.75;10.48;;;1.70;99.90;;;;;;5036091;28;20037;-72
2023/12/11 09:32:02;;;;;;;17.20;9.73;;;1.70;99.90;;;;;;5036035;28;20108;-73
2023/12/11 09:34:28;;;;;;;20.42;10.75;;;1.70;99.90;;;;;;5035935;28;20022;-73
2023/12/11 09:36:54;;;;;;;18.70;9.52;;;1.70;99.90;;;;;;5035598;28;20036;-73
2023/12/11 09:39:22;;;;;;;19.95;10.88;;;1.70;99.90;;;;;;5035581;28;20426;-73
2023/12/11 09:41:48;;;;;;;19.20;10.93;;;1.80;99.90;;;;;;5035366;28;20474;-72
2023/12/11 09:44:16;;;;;;;13.65;8.20;;;1.80;99.90;;;;;;5035846;28;20112;-73
2023/12/11 09:46:54;;;;;;;13.82;6.95;;;1.80;99.90;;;;;;5036059;28;20097;-73
2023/12/11 09:49:21;;;;;;;21.55;13.07;;;1.80;99.90;;;;;;5035705;28;20029;-73
2023/12/11 09:51:46;;;;;;;18.95;10.50;;;1.80;99.90;;;;;;5035410;28;20052;-73
2023/12/11 09:54:12;;;;;;;17.80;10.43;;;1.80;99.90;;;;;;5035452;28;20466;-73
2023/12/11 09:56:39;;;;;;;19.50;10.27;;;1.80;99.90;;;;;;5033729;28;20065;-73
2023/12/11 09:59:08;;;;;;;19.48;13.32;;;1.80;99.90;;;;;;5035158;28;20022;-73
2023/12/11 10:01:34;;;;;;;36.35;20.23;;;1.70;99.90;;;;;;5035242;28;20025;-73
2023/12/11 10:04:00;;;;;;;14.88;10.43;;;1.80;99.90;;;;;;5034285;28;20079;-73
2023/12/11 10:06:25;;;;;;;18.80;11.52;;;1.80;99.90;;;;;;5035098;28;20388;-73
2023/12/11 10:08:53;;;;;;;17.38;10.95;;;1.80;99.90;;;;;;5035031;28;20358;-73
2023/12/11 10:11:22;;;;;;;17.50;10.73;;;1.80;99.90;;;;;;5034898;28;20026;-72
2023/12/11 10:13:48;;;;;;;21.80;11.60;;;1.80;99.90;;;;;;5035189;28;20358;-72
2023/12/11 10:16:46;;;;;;;30.63;16.20;;;1.80;99.90;;;;;;5034939;28;20021;-72
2023/12/11 10:19:13;;;;;;;29.02;16.50;;;1.80;99.90;;;;;;5012432;28;20109;-72
2023/12/11 10:21:40;;;;;;;35.20;17.25;;;1.80;99.90;;;;;;5034852;28;20026;-72
2023/12/11 10:24:07;;;;;;;29.17;14.15;;;1.80;99.90;;;;;;5035070;28;20029;-72
2023/12/11 10:26:36;;;;;;;22.13;11.20;;;1.80;99.90;;;;;;5034514;28;20026;-72
2023/12/11 10:29:30;;;;;;;21.75;12.68;;;1.80;99.90;;;;;;5034644;28;20024;-72
2023/12/11 10:32:06;;;;;;;15.40;10.13;;;1.80;99.90;;;;;;5034742;28;20076;-72
2023/12/11 10:34:50;;;;;;;14.48;8.70;;;1.80;99.90;;;;;;5035109;28;20112;-72
2023/12/11 10:37:17;;;;;;;19.20;9.77;;;1.80;99.90;;;;;;5034476;28;20359;-73
2023/12/11 10:39:56;;;;;;;14.48;8.20;;;1.80;99.90;;;;;;5034263;28;20017;-72
2023/12/11 10:42:22;;;;;;;27.23;11.32;;;1.80;99.90;;;;;;5034408;28;20030;-72
2023/12/11 10:44:48;;;;;;;28.27;15.95;;;1.90;99.90;;;;;;5034378;28;20032;-73
2023/12/11 10:47:15;;;;;;;26.63;15.20;;;1.90;99.90;;;;;;5034315;28;20044;-73
2023/12/11 10:49:40;;;;;;;20.08;11.43;;;1.90;99.90;;;;;;5034577;28;20022;-72
2023/12/11 10:52:07;;;;;;;14.02;9.32;;;1.90;99.90;;;;;;5034269;28;20025;-72
2023/12/11 10:54:37;;;;;;;20.50;11.10;;;1.90;99.90;;;;;;5034121;28;20386;-72
2023/12/11 10:57:07;;;;;;;17.98;11.23;;;1.90;99.90;;;;;;5034298;28;20050;-72
2023/12/11 10:59:34;;;;;;;29.13;16.38;;;1.90;99.90;;;;;;5034133;28;20025;-72
2023/12/11 11:02:01;;;;;;;31.60;16.83;;;1.90;99.90;;;;;;5034075;28;20021;-73
2023/12/11 11:04:31;;;;;;;26.40;14.88;;;1.90;99.90;;;;;;5034288;28;20030;-72
2023/12/11 11:07:19;;;;;;;20.70;12.00;;;1.90;99.90;;;;;;5034050;28;20544;-73
2023/12/11 11:09:50;;;;;;;56.70;26.10;;;1.90;99.90;;;;;;5033243;28;20033;-73
2023/12/11 11:12:35;;;;;;;;;;;1.90;99.90;;;;;;5034442;28;20018;-73
2023/12/11 11:15:02;;;;;;;39.65;18.33;;;1.90;99.90;;;;;;5033244;28;19909;-72
2023/12/11 11:17:55;;;;;;;29.80;14.85;;;1.90;99.90;;;;;;5034036;28;20041;-73
2023/12/11 11:20:23;;;;;;;21.70;11.77;;;2.00;99.90;;;;;;5033778;28;20474;-73
2023/12/11 11:22:49;;;;;;;24.00;12.48;;;1.90;99.90;;;;;;5033732;28;20492;-72
2023/12/11 11:25:34;;;;;;;20.17;12.18;;;2.00;99.90;;;;;;5033386;28;20032;-73
2023/12/11 11:28:00;;;;;;;21.98;13.20;;;2.00;99.90;;;;;;5033598;28;20393;-72
2023/12/11 11:30:44;;;;;;;34.60;18.23;;;2.00;99.90;;;;;;5033621;28;20555;-72
2023/12/11 11:33:10;;;;;;;29.25;16.15;;;2.00;99.90;;;;;;5033557;28;20493;-72
2023/12/11 11:35:44;;;;;;;34.88;17.13;;;2.00;99.90;;;;;;5033641;28;20032;-72
2023/12/11 11:38:10;;;;;;;38.70;19.38;;;2.00;99.90;;;;;;5032154;28;20024;-72
2023/12/11 11:40:36;;;;;;;33.15;17.45;;;1.90;99.90;;;;;;5033229;28;20025;-72
2023/12/11 11:43:12;;;;;;;30.83;17.02;;;1.90;99.90;;;;;;5033747;28;20022;-72
2023/12/11 11:45:38;;;;;;;29.73;14.93;;;1.90;99.90;;;;;;5033416;28;20482;-72
2023/12/11 11:48:04;;;;;;;21.38;13.07;;;1.90;99.90;;;;;;5033480;28;20043;-72
2023/12/11 11:50:30;;;;;;;23.13;13.27;;;1.90;99.90;;;;;;5033705;28;20057;-72
2023/12/11 11:53:01;;;;;;;29.67;16.20;;;1.90;99.90;;;;;;5033733;28;20060;-73
2023/12/11 11:55:27;;;;;;;31.65;18.27;;;2.00;99.90;;;;;;5032894;28;20037;-72
2023/12/11 11:57:54;;;;;;;36.17;19.33;;;2.00;99.90;;;;;;5033233;28;20040;-72
2023/12/11 12:00:24;;;;;;;40.13;20.40;;;2.10;99.90;;;;;;5031998;28;20022;-72
2023/12/11 12:03:03;;;;;;;62.17;28.02;;;2.10;99.90;;;;;;5033215;28;20099;-72
2023/12/11 12:05:29;;;;;;;46.05;23.00;;;2.20;99.90;;;;;;5033485;28;20022;-72
2023/12/11 12:07:54;;;;;;;27.48;15.80;;;2.20;99.90;;;;;;5032989;28;20029;-72
2023/12/11 12:10:20;;;;;;;26.02;14.85;;;2.20;99.90;;;;;;5033337;28;20033;-72
2023/12/11 12:12:52;;;;;;;25.67;13.57;;;2.20;99.90;;;;;;5033449;28;20037;-72
2023/12/11 12:15:19;;;;;;;23.90;14.18;;;2.20;99.90;;;;;;5033624;28;20061;-72
2023/12/11 12:17:45;;;;;;;20.98;12.68;;;2.30;99.90;;;;;;5033012;28;20026;-72
2023/12/11 12:20:19;;;;;;;21.98;12.60;;;2.40;99.90;;;;;;5033096;28;20465;-72
2023/12/11 12:23:03;;;;;;;20.35;11.65;;;2.40;99.90;;;;;;5035826;28;20025;-72
2023/12/11 12:25:30;;;;;;;23.08;12.88;;;2.50;99.90;;;;;;5036751;28;20029;-72
2023/12/11 12:27:59;;;;;;;23.80;13.98;;;2.60;99.90;;;;;;5035595;28;20109;-72
2023/12/11 12:30:27;;;;;;;28.58;15.93;;;2.60;99.90;;;;;;5036896;28;20389;-72
2023/12/11 12:32:54;;;;;;;31.45;15.65;;;2.70;99.90;;;;;;5036864;28;20075;-72
2023/12/11 12:35:21;;;;;;;34.33;16.67;;;2.70;99.90;;;;;;5036742;28;20029;-72
2023/12/11 12:37:49;;;;;;;32.75;16.65;;;2.70;99.90;;;;;;5036640;28;20017;-72
2023/12/11 12:40:18;;;;;;;26.90;16.60;;;2.80;99.90;;;;;;5036496;28;20109;-72
2023/12/11 12:42:44;;;;;;;19.83;12.48;;;2.80;99.90;;;;;;5036687;28;20041;-72
2023/12/11 12:45:10;;;;;;;23.15;13.55;;;2.80;99.90;;;;;;5035547;28;20029;-72
2023/12/11 12:47:46;;;;;;;15.90;11.02;;;2.70;99.90;;;;;;5036545;28;20048;-72